createdAt,value
2024-04-23T00:08:21.642Z,3.63
2024-04-23T00:38:24.177Z,4.07
2024-04-23T01:08:26.891Z,6.03
2024-04-23T01:38:29.462Z,3.37
2024-04-23T02:08:32.129Z,5.23
2024-04-23T02:38:34.649Z,4.37
2024-04-23T03:08:37.404Z,3.90
2024-04-23T03:38:39.931Z,4.37
2024-04-23T04:08:42.687Z,7.53
2024-04-23T04:38:45.188Z,4.40
2024-04-23T05:08:47.949Z,4.70
2024-04-23T05:38:51.361Z,5.00
2024-04-23T06:08:54.159Z,13.77
2024-04-23T06:38:56.688Z,5.37
2024-04-23T07:08:59.605Z,7.57
2024-04-23T07:39:02.169Z,11.10
2024-04-23T08:09:05.096Z,16.23
2024-04-23T08:39:07.639Z,9.13
2024-04-23T09:09:11.814Z,8.17
2024-04-23T09:39:17.733Z,10.67
2024-04-23T10:09:26.557Z,8.83
2024-04-23T10:39:29.023Z,7.93
2024-04-23T11:09:47.790Z,5.83
2024-04-23T11:40:00.219Z,2.23
2024-04-23T12:10:05.763Z,4.40
2024-04-23T12:40:10.155Z,4.53
2024-04-23T13:10:13.866Z,3.63
2024-04-23T13:40:16.528Z,77.17
2024-04-23T14:10:18.971Z,17.00
2024-04-23T14:40:24.969Z,9.43
2024-04-23T15:10:28.411Z,10.43
2024-04-23T15:40:30.919Z,17.50
2024-04-23T16:10:34.345Z,5.53
2024-04-23T16:40:37.472Z,6.33
2024-04-23T17:10:44.783Z,13.00
2024-04-23T17:40:47.753Z,19.40
2024-04-23T18:10:50.769Z,9.43
2024-04-23T18:40:54.001Z,89.97
2024-04-23T19:10:56.939Z,194.57
2024-04-23T19:41:12.873Z,104.07
2024-04-23T20:11:16.436Z,31.90
2024-04-23T20:41:19.153Z,42.67
2024-04-23T21:11:21.976Z,12.37
2024-04-23T21:41:24.512Z,16.17
2024-04-23T22:11:27.997Z,8.13
2024-04-23T22:41:30.534Z,6.77
2024-04-23T23:11:33.364Z,12.47
2024-04-23T23:41:36.540Z,6.43
